sensor_id;sensor_type;location;lat;lon;timestamp;pressure;altitude;pressure_sealevel;temperature;humidity
19594;BME280;9944;48.240;16.478;2022-09-24T00:02:20;99782.38;;;10.80;64.88
19594;BME280;9944;48.240;16.478;2022-09-24T00:06:23;99776.25;;;10.73;65.21
19594;BME280;9944;48.240;16.478;2022-09-24T00:10:26;99777.97;;;10.68;65.53
19594;BME280;9944;48.240;16.478;2022-09-24T00:14:31;99777.94;;;10.62;65.52
19594;BME280;9944;48.240;16.478;2022-09-24T00:18:34;99779.69;;;10.57;65.43
19594;BME280;9944;48.240;16.478;2022-09-24T00:22:37;99777.91;;;10.52;65.38
19594;BME280;9944;48.240;16.478;2022-09-24T00:26:40;99774.38;;;10.47;65.72
19594;BME280;9944;48.240;16.478;2022-09-24T00:30:54;99764.72;;;10.45;65.59
19594;BME280;9944;48.240;16.478;2022-09-24T00:34:59;99767.34;;;10.42;65.81
19594;BME280;9944;48.240;16.478;2022-09-24T00:39:02;99765.56;;;10.39;66.11
19594;BME280;9944;48.240;16.478;2022-09-24T00:43:28;99759.44;;;10.37;66.29
19594;BME280;9944;48.240;16.478;2022-09-24T00:47:35;99763.84;;;10.38;66.31
19594;BME280;9944;48.240;16.478;2022-09-24T00:51:40;99762.94;;;10.33;66.10
19594;BME280;9944;48.240;16.478;2022-09-24T00:55:46;99753.19;;;10.27;66.34
19594;BME280;9944;48.240;16.478;2022-09-24T00:59:52;99754.06;;;10.22;66.73
19594;BME280;9944;48.240;16.478;2022-09-24T01:03:58;99747.06;;;10.19;66.76
19594;BME280;9944;48.240;16.478;2022-09-24T01:08:02;99744.41;;;10.17;66.70
19594;BME280;9944;48.240;16.478;2022-09-24T01:12:09;99745.28;;;10.18;67.22
19594;BME280;9944;48.240;16.478;2022-09-24T01:16:23;99741.78;;;10.19;66.98
19594;BME280;9944;48.240;16.478;2022-09-24T01:20:52;99739.16;;;10.17;66.96
19594;BME280;9944;48.240;16.478;2022-09-24T01:25:00;99740.03;;;10.18;67.00
19594;BME280;9944;48.240;16.478;2022-09-24T01:29:27;99734.75;;;10.16;67.08
19594;BME280;9944;48.240;16.478;2022-09-24T01:33:32;99721.59;;;10.10;67.13
19594;BME280;9944;48.240;16.478;2022-09-24T01:37:40;99727.66;;;10.03;66.99
19594;BME280;9944;48.240;16.478;2022-09-24T01:41:46;99725.03;;;9.97;67.11
19594;BME280;9944;48.240;16.478;2022-09-24T01:45:52;99733.72;;;9.93;67.52
19594;BME280;9944;48.240;16.478;2022-09-24T01:49:56;99724.09;;;9.89;67.65
19594;BME280;9944;48.240;16.478;2022-09-24T01:54:02;99724.06;;;9.87;67.52
19594;BME280;9944;48.240;16.478;2022-09-24T01:58:08;99724.97;;;9.86;67.60
19594;BME280;9944;48.240;16.478;2022-09-24T02:02:16;99717.06;;;9.83;68.06
19594;BME280;9944;48.240;16.478;2022-09-24T02:06:27;99703.91;;;9.83;67.77
19594;BME280;9944;48.240;16.478;2022-09-24T02:10:36;99706.50;;;9.80;67.87
19594;BME280;9944;48.240;16.478;2022-09-24T02:14:44;99717.88;;;9.74;67.95
19594;BME280;9944;48.240;16.478;2022-09-24T02:18:54;99711.72;;;9.69;67.67
19594;BME280;9944;48.240;16.478;2022-09-24T02:22:58;99708.16;;;9.64;67.96
19594;BME280;9944;48.240;16.478;2022-09-24T02:27:02;99703.78;;;9.60;68.13
19594;BME280;9944;48.240;16.478;2022-09-24T02:31:08;99707.22;;;9.56;68.36
19594;BME280;9944;48.240;16.478;2022-09-24T02:35:15;99705.50;;;9.55;68.34
19594;BME280;9944;48.240;16.478;2022-09-24T02:39:19;99701.06;;;9.52;68.28
19594;BME280;9944;48.240;16.478;2022-09-24T02:43:22;99704.56;;;9.50;68.14
19594;BME280;9944;48.240;16.478;2022-09-24T02:47:26;99697.53;;;9.46;68.49
19594;BME280;9944;48.240;16.478;2022-09-24T02:51:31;99699.28;;;9.45;68.48
19594;BME280;9944;48.240;16.478;2022-09-24T02:55:34;99689.63;;;9.42;68.69
19594;BME280;9944;48.240;16.478;2022-09-24T02:59:37;99688.72;;;9.40;68.76
19594;BME280;9944;48.240;16.478;2022-09-24T03:03:40;99698.38;;;9.41;68.84
19594;BME280;9944;48.240;16.478;2022-09-24T03:07:45;99691.34;;;9.40;69.07
19594;BME280;9944;48.240;16.478;2022-09-24T03:11:48;99690.50;;;9.40;68.97
19594;BME280;9944;48.240;16.478;2022-09-24T03:15:51;99686.09;;;9.40;69.14
19594;BME280;9944;48.240;16.478;2022-09-24T03:19:55;99684.38;;;9.39;69.13
19594;BME280;9944;48.240;16.478;2022-09-24T03:23:59;99681.75;;;9.39;69.24
19594;BME280;9944;48.240;16.478;2022-09-24T03:28:03;99684.34;;;9.36;69.16
19594;BME280;9944;48.240;16.478;2022-09-24T03:32:06;99680.81;;;9.34;69.36
19594;BME280;9944;48.240;16.478;2022-09-24T03:36:10;99680.78;;;9.31;69.49
19594;BME280;9944;48.240;16.478;2022-09-24T03:40:15;99678.16;;;9.30;69.68
19594;BME280;9944;48.240;16.478;2022-09-24T03:44:19;99671.13;;;9.29;69.84
19594;BME280;9944;48.240;16.478;2022-09-24T03:48:22;99680.75;;;9.28;69.78
19594;BME280;9944;48.240;16.478;2022-09-24T03:52:26;99677.25;;;9.26;69.86
19594;BME280;9944;48.240;16.478;2022-09-24T03:56:31;99683.38;;;9.23;70.07
19594;BME280;9944;48.240;16.478;2022-09-24T04:00:33;99674.59;;;9.21;70.09
19594;BME280;9944;48.240;16.478;2022-09-24T04:04:41;99669.34;;;9.18;70.04
19594;BME280;9944;48.240;16.478;2022-09-24T04:08:44;99682.47;;;9.18;69.65
19594;BME280;9944;48.240;16.478;2022-09-24T04:12:49;99694.66;;;9.16;69.93
19594;BME280;9944;48.240;16.478;2022-09-24T04:16:52;99689.41;;;9.15;70.33
19594;BME280;9944;48.240;16.478;2022-09-24T04:20:57;99684.16;;;9.12;70.44
19594;BME280;9944;48.240;16.478;2022-09-24T04:25:00;99676.25;;;9.10;70.32
19594;BME280;9944;48.240;16.478;2022-09-24T04:29:05;99678.88;;;9.09;70.25
19594;BME280;9944;48.240;16.478;2022-09-24T04:33:08;99674.47;;;9.06;70.22
19594;BME280;9944;48.240;16.478;2022-09-24T04:37:12;99675.34;;;9.07;70.17
19594;BME280;9944;48.240;16.478;2022-09-24T04:41:16;99669.22;;;9.04;70.26
19594;BME280;9944;48.240;16.478;2022-09-24T04:45:20;99675.34;;;9.05;70.27
19594;BME280;9944;48.240;16.478;2022-09-24T04:49:25;99675.31;;;9.03;70.30
19594;BME280;9944;48.240;16.478;2022-09-24T04:53:30;99674.44;;;9.01;70.26
19594;BME280;9944;48.240;16.478;2022-09-24T04:57:33;99659.53;;;9.00;70.50
19594;BME280;9944;48.240;16.478;2022-09-24T05:01:38;99670.91;;;8.98;70.66
19594;BME280;9944;48.240;16.478;2022-09-24T05:05:41;99676.19;;;8.99;70.80
19594;BME280;9944;48.240;16.478;2022-09-24T05:09:47;99670.94;;;8.99;71.04
19594;BME280;9944;48.240;16.478;2022-09-24T05:13:51;99680.53;;;9.00;71.29
19594;BME280;9944;48.240;16.478;2022-09-24T05:17:55;99681.44;;;8.99;71.08
19594;BME280;9944;48.240;16.478;2022-09-24T05:21:58;99678.81;;;8.99;71.10
19594;BME280;9944;48.240;16.478;2022-09-24T05:26:01;99682.31;;;9.01;71.20
19594;BME280;9944;48.240;16.478;2022-09-24T05:30:23;99685.84;;;9.07;71.46
19594;BME280;9944;48.240;16.478;2022-09-24T05:34:28;99686.78;;;9.12;71.24
19594;BME280;9944;48.240;16.478;2022-09-24T05:38:31;99678.94;;;9.18;71.26
19594;BME280;9944;48.240;16.478;2022-09-24T05:42:34;99680.75;;;9.23;71.54
19594;BME280;9944;48.240;16.478;2022-09-24T05:46:38;99677.31;;;9.32;71.71
19594;BME280;9944;48.240;16.478;2022-09-24T05:50:42;99686.09;;;9.40;72.06
19594;BME280;9944;48.240;16.478;2022-09-24T05:54:45;99693.19;;;9.51;72.33
19594;BME280;9944;48.240;16.478;2022-09-24T05:58:49;99702.03;;;9.62;72.34
19594;BME280;9944;48.240;16.478;2022-09-24T06:02:52;99708.19;;;9.70;72.38
19594;BME280;9944;48.240;16.478;2022-09-24T06:06:56;99707.38;;;9.77;72.09
19594;BME280;9944;48.240;16.478;2022-09-24T06:11:02;99710.03;;;9.84;72.09
19594;BME280;9944;48.240;16.478;2022-09-24T06:15:06;99709.19;;;9.91;71.79
19594;BME280;9944;48.240;16.478;2022-09-24T06:19:10;99714.50;;;9.97;72.02
19594;BME280;9944;48.240;16.478;2022-09-24T06:23:14;99711.03;;;10.04;71.92
19594;BME280;9944;48.240;16.478;2022-09-24T06:27:17;99711.97;;;10.12;71.81
19594;BME280;9944;48.240;16.478;2022-09-24T06:31:20;99696.19;;;10.18;71.53
19594;BME280;9944;48.240;16.478;2022-09-24T06:35:23;99704.13;;;10.25;71.54
19594;BME280;9944;48.240;16.478;2022-09-24T06:39:28;99693.59;;;10.29;71.24
19594;BME280;9944;48.240;16.478;2022-09-24T06:43:32;99689.25;;;10.34;71.16
19594;BME280;9944;48.240;16.478;2022-09-24T06:47:35;99689.31;;;10.44;71.42
19594;BME280;9944;48.240;16.478;2022-09-24T06:51:38;99677.06;;;10.55;71.11
19594;BME280;9944;48.240;16.478;2022-09-24T06:55:43;99669.19;;;10.67;70.62
19594;BME280;9944;48.240;16.478;2022-09-24T06:59:47;99661.31;;;10.80;70.34
19594;BME280;9944;48.240;16.478;2022-09-24T07:03:52;99667.47;;;10.86;70.24
19594;BME280;9944;48.240;16.478;2022-09-24T07:07:55;99678.00;;;10.92;69.84
19594;BME280;9944;48.240;16.478;2022-09-24T07:12:00;99676.28;;;11.01;69.92
19594;BME280;9944;48.240;16.478;2022-09-24T07:16:05;99686.81;;;11.13;69.64
19594;BME280;9944;48.240;16.478;2022-09-24T07:20:09;99685.03;;;11.27;69.57
19594;BME280;9944;48.240;16.478;2022-09-24T07:24:12;99689.41;;;11.47;69.25
19594;BME280;9944;48.240;16.478;2022-09-24T07:28:16;99697.28;;;11.59;69.33
19594;BME280;9944;48.240;16.478;2022-09-24T07:32:20;99693.78;;;11.69;69.18
19594;BME280;9944;48.240;16.478;2022-09-24T07:36:30;99688.50;;;11.76;68.30
19594;BME280;9944;48.240;16.478;2022-09-24T07:40:33;99687.59;;;11.89;68.58
19594;BME280;9944;48.240;16.478;2022-09-24T07:44:38;99686.69;;;12.04;68.12
19594;BME280;9944;48.240;16.478;2022-09-24T07:48:41;99682.22;;;12.17;68.16
19594;BME280;9944;48.240;16.478;2022-09-24T07:52:49;99695.38;;;12.31;67.70
19594;BME280;9944;48.240;16.478;2022-09-24T07:56:52;99690.94;;;12.39;66.89
19594;BME280;9944;48.240;16.478;2022-09-24T08:00:57;99686.50;;;12.52;67.23
19594;BME280;9944;48.240;16.478;2022-09-24T08:05:01;99679.38;;;12.63;67.10
19594;BME280;9944;48.240;16.478;2022-09-24T08:09:05;99668.75;;;12.72;66.91
19594;BME280;9944;48.240;16.478;2022-09-24T08:13:08;99667.81;;;12.82;66.77
19594;BME280;9944;48.240;16.478;2022-09-24T08:17:13;99677.47;;;12.90;66.22
19594;BME280;9944;48.240;16.478;2022-09-24T08:21:16;99672.09;;;13.02;66.66
19594;BME280;9944;48.240;16.478;2022-09-24T08:25:19;99673.72;;;13.14;65.86
19594;BME280;9944;48.240;16.478;2022-09-24T08:29:22;99666.63;;;13.21;65.39
19594;BME280;9944;48.240;16.478;2022-09-24T08:33:27;99671.03;;;13.23;65.41
19594;BME280;9944;48.240;16.478;2022-09-24T08:37:30;99671.81;;;13.36;65.26
19594;BME280;9944;48.240;16.478;2022-09-24T08:41:53;99675.28;;;13.46;65.04
19594;BME280;9944;48.240;16.478;2022-09-24T08:46:00;99687.44;;;13.61;64.91
19594;BME280;9944;48.240;16.478;2022-09-24T08:50:24;99685.59;;;13.72;64.72
19594;BME280;9944;48.240;16.478;2022-09-24T08:54:30;99687.22;;;13.85;65.02
19594;BME280;9944;48.240;16.478;2022-09-24T08:58:39;99688.88;;;13.94;64.24
19594;BME280;9944;48.240;16.478;2022-09-24T09:02:52;99682.66;;;13.98;64.14
19594;BME280;9944;48.240;16.478;2022-09-24T09:07:09;99684.28;;;14.11;63.85
19594;BME280;9944;48.240;16.478;2022-09-24T09:11:15;99682.47;;;14.13;63.54
19594;BME280;9944;48.240;16.478;2022-09-24T09:15:24;99688.59;;;14.20;63.71
19594;BME280;9944;48.240;16.478;2022-09-24T09:19:32;99677.00;;;14.30;63.04
19594;BME280;9944;48.240;16.478;2022-09-24T09:23:42;99671.63;;;14.34;63.21
19594;BME280;9944;48.240;16.478;2022-09-24T09:27:56;99679.34;;;14.50;62.96
19594;BME280;9944;48.240;16.478;2022-09-24T09:32:05;99678.22;;;14.72;63.08
19594;BME280;9944;48.240;16.478;2022-09-24T09:36:31;99670.00;;;14.90;62.62
19594;BME280;9944;48.240;16.478;2022-09-24T09:40:42;99666.38;;;14.94;62.29
19594;BME280;9944;48.240;16.478;2022-09-24T09:44:46;99674.28;;;14.99;61.95
19594;BME280;9944;48.240;16.478;2022-09-24T09:48:52;99667.09;;;15.07;61.72
19594;BME280;9944;48.240;16.478;2022-09-24T09:52:56;99665.06;;;15.21;61.99
19594;BME280;9944;48.240;16.478;2022-09-24T09:57:01;99654.16;;;15.40;61.77
19594;BME280;9944;48.240;16.478;2022-09-24T10:01:06;99647.81;;;15.49;61.04
19594;BME280;9944;48.240;16.478;2022-09-24T10:05:19;99655.69;;;15.53;60.88
19594;BME280;9944;48.240;16.478;2022-09-24T10:09:28;99643.97;;;15.65;60.79
19594;BME280;9944;48.240;16.478;2022-09-24T10:13:32;99646.53;;;15.70;60.63
19594;BME280;9944;48.240;16.478;2022-09-24T10:17:37;99634.97;;;15.72;60.43
19594;BME280;9944;48.240;16.478;2022-09-24T10:21:40;99627.75;;;15.84;60.47
19594;BME280;9944;48.240;16.478;2022-09-24T10:25:49;99635.44;;;15.96;60.41
19594;BME280;9944;48.240;16.478;2022-09-24T10:29:54;99620.31;;;16.01;60.06
19594;BME280;9944;48.240;16.478;2022-09-24T10:34:21;99623.88;;;15.98;60.04
19594;BME280;9944;48.240;16.478;2022-09-24T10:38:27;99625.69;;;15.96;60.08
19594;BME280;9944;48.240;16.478;2022-09-24T10:42:31;99620.16;;;16.07;60.17
19594;BME280;9944;48.240;16.478;2022-09-24T10:51:08;99625.94;;;16.28;59.44
19594;BME280;9944;48.240;16.478;2022-09-24T10:55:22;99623.22;;;16.31;59.13
19594;BME280;9944;48.240;16.478;2022-09-24T10:59:43;99617.69;;;16.40;59.24
19594;BME280;9944;48.240;16.478;2022-09-24T11:04:18;99618.44;;;16.47;59.33
19594;BME280;9944;48.240;16.478;2022-09-24T11:08:31;99605.91;;;16.52;59.05
19594;BME280;9944;48.240;16.478;2022-09-24T11:12:42;99603.09;;;16.60;58.97
19594;BME280;9944;48.240;16.478;2022-09-24T11:17:01;99592.38;;;16.63;59.20
19594;BME280;9944;48.240;16.478;2022-09-24T11:21:20;99591.38;;;16.68;59.20
19594;BME280;9944;48.240;16.478;2022-09-24T11:25:34;99608.81;;;16.79;59.31
19594;BME280;9944;48.240;16.478;2022-09-24T11:29:53;99606.03;;;16.86;59.06
19594;BME280;9944;48.240;16.478;2022-09-24T11:34:23;99604.94;;;16.95;59.30
19594;BME280;9944;48.240;16.478;2022-09-24T11:38:40;99602.00;;;17.06;58.99
19594;BME280;9944;48.240;16.478;2022-09-24T11:42:52;99600.75;;;17.21;58.86
19594;BME280;9944;48.240;16.478;2022-09-24T11:47:11;99598.78;;;17.27;58.71
19594;BME280;9944;48.240;16.478;2022-09-24T11:51:25;99595.25;;;17.27;58.48
19594;BME280;9944;48.240;16.478;2022-09-24T11:55:38;99597.78;;;17.31;58.94
19594;BME280;9944;48.240;16.478;2022-09-24T11:59:49;99586.00;;;17.42;58.46
19594;BME280;9944;48.240;16.478;2022-09-24T12:03:58;99586.66;;;17.50;58.49
19594;BME280;9944;48.240;16.478;2022-09-24T12:08:10;99583.69;;;17.61;58.26
19594;BME280;9944;48.240;16.478;2022-09-24T12:12:20;99583.44;;;17.70;58.32
19594;BME280;9944;48.240;16.478;2022-09-24T12:16:26;99580.38;;;17.84;58.09
19594;BME280;9944;48.240;16.478;2022-09-24T12:20:31;99573.09;;;17.92;57.79
19594;BME280;9944;48.240;16.478;2022-09-24T12:24:41;99574.72;;;17.96;57.53
19594;BME280;9944;48.240;16.478;2022-09-24T12:28:53;99576.88;;;18.13;57.80
19594;BME280;9944;48.240;16.478;2022-09-24T12:33:17;99568.56;;;18.24;57.31
19594;BME280;9944;48.240;16.478;2022-09-24T12:37:27;99572.66;;;18.36;57.21
19594;BME280;9944;48.240;16.478;2022-09-24T12:41:34;99558.25;;;18.41;56.88
19594;BME280;9944;48.240;16.478;2022-09-24T12:45:40;99551.94;;;18.46;56.86
19594;BME280;9944;48.240;16.478;2022-09-24T12:49:47;99549.94;;;18.52;56.67
19594;BME280;9944;48.240;16.478;2022-09-24T12:53:58;99546.09;;;18.61;56.87
19594;BME280;9944;48.240;16.478;2022-09-24T12:58:03;99545.78;;;18.70;56.71
19594;BME280;9944;48.240;16.478;2022-09-24T13:02:15;99546.47;;;18.77;56.13
19594;BME280;9944;48.240;16.478;2022-09-24T13:06:22;99540.25;;;18.76;56.07
19594;BME280;9944;48.240;16.478;2022-09-24T13:10:33;99539.44;;;18.74;56.36
19594;BME280;9944;48.240;16.478;2022-09-24T13:14:40;99546.59;;;18.72;55.72
19594;BME280;9944;48.240;16.478;2022-09-24T13:18:51;99539.53;;;18.71;55.73
19594;BME280;9944;48.240;16.478;2022-09-24T13:22:57;99539.38;;;18.76;55.84
19594;BME280;9944;48.240;16.478;2022-09-24T13:27:18;99528.63;;;18.79;55.62
19594;BME280;9944;48.240;16.478;2022-09-24T13:31:26;99522.28;;;18.81;55.63
19594;BME280;9944;48.240;16.478;2022-09-24T13:35:40;99520.56;;;18.80;55.00
19594;BME280;9944;48.240;16.478;2022-09-24T13:39:47;99514.53;;;18.75;54.83
19594;BME280;9944;48.240;16.478;2022-09-24T13:43:56;99506.56;;;18.74;55.44
19594;BME280;9944;48.240;16.478;2022-09-24T13:48:03;99501.28;;;18.72;55.25
19594;BME280;9944;48.240;16.478;2022-09-24T13:52:12;99504.88;;;18.71;55.34
19594;BME280;9944;48.240;16.478;2022-09-24T13:56:18;99494.22;;;18.71;55.55
19594;BME280;9944;48.240;16.478;2022-09-24T14:00:23;99499.34;;;18.77;55.69
19594;BME280;9944;48.240;16.478;2022-09-24T14:04:29;99498.47;;;18.77;55.42
19594;BME280;9944;48.240;16.478;2022-09-24T14:08:34;99502.91;;;18.76;55.23
19594;BME280;9944;48.240;16.478;2022-09-24T14:12:39;99493.25;;;18.74;55.43
19594;BME280;9944;48.240;16.478;2022-09-24T14:16:42;99496.72;;;18.76;55.75
19594;BME280;9944;48.240;16.478;2022-09-24T14:20:49;99487.88;;;18.75;55.89
19594;BME280;9944;48.240;16.478;2022-09-24T14:24:59;99488.78;;;18.74;55.78
19594;BME280;9944;48.240;16.478;2022-09-24T14:29:06;99486.13;;;18.74;55.34
19594;BME280;9944;48.240;16.478;2022-09-24T14:33:14;99476.50;;;18.70;55.59
19594;BME280;9944;48.240;16.478;2022-09-24T14:37:20;99480.06;;;18.69;55.29
19594;BME280;9944;48.240;16.478;2022-09-24T14:41:28;99480.88;;;18.71;55.74
19594;BME280;9944;48.240;16.478;2022-09-24T14:45:34;99476.38;;;18.73;55.75
19594;BME280;9944;48.240;16.478;2022-09-24T14:49:43;99487.00;;;18.75;55.85
19594;BME280;9944;48.240;16.478;2022-09-24T14:53:56;99484.34;;;18.75;56.18
19594;BME280;9944;48.240;16.478;2022-09-24T14:58:00;99477.31;;;18.72;56.05
19594;BME280;9944;48.240;16.478;2022-09-24T15:02:13;99474.63;;;18.72;56.46
19594;BME280;9944;48.240;16.478;2022-09-24T15:06:20;99473.81;;;18.70;56.09
19594;BME280;9944;48.240;16.478;2022-09-24T15:10:24;99478.44;;;18.65;56.25
19594;BME280;9944;48.240;16.478;2022-09-24T15:14:31;99481.09;;;18.65;56.60
19594;BME280;9944;48.240;16.478;2022-09-24T15:18:35;99478.44;;;18.65;57.04
19594;BME280;9944;48.240;16.478;2022-09-24T15:22:38;99478.53;;;18.62;56.78
19594;BME280;9944;48.240;16.478;2022-09-24T15:26:43;99477.72;;;18.60;56.66
19594;BME280;9944;48.240;16.478;2022-09-24T15:30:47;99480.47;;;18.57;56.76
19594;BME280;9944;48.240;16.478;2022-09-24T15:34:51;99480.53;;;18.55;56.86
19594;BME280;9944;48.240;16.478;2022-09-24T15:38:59;99480.56;;;18.54;57.28
19594;BME280;9944;48.240;16.478;2022-09-24T15:43:07;99476.25;;;18.51;57.38
19594;BME280;9944;48.240;16.478;2022-09-24T15:47:16;99467.53;;;18.46;57.25
19594;BME280;9944;48.240;16.478;2022-09-24T15:51:20;99464.00;;;18.46;57.34
19594;BME280;9944;48.240;16.478;2022-09-24T15:55:24;99459.59;;;18.44;57.54
19594;BME280;9944;48.240;16.478;2022-09-24T15:59:27;99464.94;;;18.43;58.09
19594;BME280;9944;48.240;16.478;2022-09-24T16:03:31;99459.84;;;18.37;58.29
19594;BME280;9944;48.240;16.478;2022-09-24T16:07:35;99466.22;;;18.31;58.37
19594;BME280;9944;48.240;16.478;2022-09-24T16:11:38;99459.22;;;18.29;58.33
19594;BME280;9944;48.240;16.478;2022-09-24T16:15:41;99456.69;;;18.24;58.68
19594;BME280;9944;48.240;16.478;2022-09-24T16:19:46;99463.06;;;18.20;59.01
19594;BME280;9944;48.240;16.478;2022-09-24T16:23:52;99458.81;;;18.14;59.25
19594;BME280;9944;48.240;16.478;2022-09-24T16:27:56;99466.97;;;18.08;59.45
19594;BME280;9944;48.240;16.478;2022-09-24T16:31:59;99466.25;;;18.03;59.82
19594;BME280;9944;48.240;16.478;2022-09-24T16:36:05;99473.56;;;17.96;60.59
19594;BME280;9944;48.240;16.478;2022-09-24T16:40:09;99472.00;;;17.89;60.63
19594;BME280;9944;48.240;16.478;2022-09-24T16:44:13;99469.44;;;17.84;60.86
19594;BME280;9944;48.240;16.478;2022-09-24T16:48:16;99474.03;;;17.79;61.17
19594;BME280;9944;48.240;16.478;2022-09-24T16:52:21;99469.72;;;17.75;61.54
19594;BME280;9944;48.240;16.478;2022-09-24T16:56:24;99472.63;;;17.67;61.76
19594;BME280;9944;48.240;16.478;2022-09-24T17:00:27;99472.72;;;17.64;62.14
19594;BME280;9944;48.240;16.478;2022-09-24T17:04:30;99464.00;;;17.59;62.57
19594;BME280;9944;48.240;16.478;2022-09-24T17:08:36;99474.72;;;17.56;62.77
19594;BME280;9944;48.240;16.478;2022-09-24T17:12:57;99473.09;;;17.52;63.03
19594;BME280;9944;48.240;16.478;2022-09-24T17:17:01;99489.06;;;17.52;63.20
19594;BME280;9944;48.240;16.478;2022-09-24T17:21:07;99481.97;;;17.51;63.17
19594;BME280;9944;48.240;16.478;2022-09-24T17:25:11;99485.66;;;17.47;63.42
19594;BME280;9944;48.240;16.478;2022-09-24T17:29:14;99486.59;;;17.44;63.98
19594;BME280;9944;48.240;16.478;2022-09-24T17:33:21;99484.03;;;17.41;64.33
19594;BME280;9944;48.240;16.478;2022-09-24T17:37:44;99484.22;;;17.35;64.69
19594;BME280;9944;48.240;16.478;2022-09-24T17:41:48;99478.94;;;17.34;64.80
19594;BME280;9944;48.240;16.478;2022-09-24T17:45:55;99476.47;;;17.27;64.66
19594;BME280;9944;48.240;16.478;2022-09-24T17:49:59;99473.97;;;17.21;64.25
19594;BME280;9944;48.240;16.478;2022-09-24T17:54:05;99472.41;;;17.14;64.24
19594;BME280;9944;48.240;16.478;2022-09-24T17:58:10;99473.44;;;17.08;64.36
19594;BME280;9944;48.240;16.478;2022-09-24T18:02:13;99479.66;;;17.07;64.41
19594;BME280;9944;48.240;16.478;2022-09-24T18:06:16;99473.59;;;17.02;64.33
19594;BME280;9944;48.240;16.478;2022-09-24T18:10:19;99483.47;;;16.97;64.35
19594;BME280;9944;48.240;16.478;2022-09-24T18:14:23;99483.66;;;16.91;64.24
19594;BME280;9944;48.240;16.478;2022-09-24T18:18:26;99486.44;;;16.86;64.77
19594;BME280;9944;48.240;16.478;2022-09-24T18:22:29;99490.03;;;16.84;65.07
19594;BME280;9944;48.240;16.478;2022-09-24T18:26:34;99485.66;;;16.81;65.27
19594;BME280;9944;48.240;16.478;2022-09-24T18:30:39;99478.59;;;16.79;65.30
19594;BME280;9944;48.240;16.478;2022-09-24T18:34:42;99479.63;;;16.74;65.71
19594;BME280;9944;48.240;16.478;2022-09-24T18:38:46;99471.75;;;16.70;65.75
19594;BME280;9944;48.240;16.478;2022-09-24T18:42:50;99482.47;;;16.67;65.88
19594;BME280;9944;48.240;16.478;2022-09-24T18:46:54;99476.34;;;16.65;66.08
19594;BME280;9944;48.240;16.478;2022-09-24T18:50:58;99471.16;;;16.59;66.17
19594;BME280;9944;48.240;16.478;2022-09-24T18:55:01;99480.97;;;16.56;66.42
19594;BME280;9944;48.240;16.478;2022-09-24T18:59:05;99478.38;;;16.53;66.69
19594;BME280;9944;48.240;16.478;2022-09-24T19:03:12;99474.06;;;16.49;66.78
19594;BME280;9944;48.240;16.478;2022-09-24T19:07:15;99479.44;;;16.46;66.90
19594;BME280;9944;48.240;16.478;2022-09-24T19:11:18;99472.44;;;16.42;67.12
19594;BME280;9944;48.240;16.478;2022-09-24T19:15:22;99474.38;;;16.37;66.86
19594;BME280;9944;48.240;16.478;2022-09-24T19:19:27;99472.75;;;16.30;67.03
19594;BME280;9944;48.240;16.478;2022-09-24T19:23:30;99467.53;;;16.27;67.03
19594;BME280;9944;48.240;16.478;2022-09-24T19:27:33;99467.59;;;16.24;66.99
19594;BME280;9944;48.240;16.478;2022-09-24T19:31:38;99464.19;;;16.18;67.19
19594;BME280;9944;48.240;16.478;2022-09-24T19:35:51;99465.22;;;16.13;67.54
19594;BME280;9944;48.240;16.478;2022-09-24T19:39:55;99457.34;;;16.08;67.53
19594;BME280;9944;48.240;16.478;2022-09-24T19:43:58;99464.53;;;16.03;67.55
19594;BME280;9944;48.240;16.478;2022-09-24T19:48:11;99459.31;;;16.00;67.57
19594;BME280;9944;48.240;16.478;2022-09-24T19:52:16;99455.81;;;15.98;67.65
19594;BME280;9944;48.240;16.478;2022-09-24T19:56:20;99450.53;;;15.96;67.67
19594;BME280;9944;48.240;16.478;2022-09-24T20:00:26;99465.66;;;15.93;67.70
19594;BME280;9944;48.240;16.478;2022-09-24T20:04:29;99464.91;;;15.88;67.75
19594;BME280;9944;48.240;16.478;2022-09-24T20:08:36;99475.66;;;15.81;67.88
19594;BME280;9944;48.240;16.478;2022-09-24T20:12:39;99479.28;;;15.77;67.89
19594;BME280;9944;48.240;16.478;2022-09-24T20:16:47;99484.72;;;15.70;67.72
19594;BME280;9944;48.240;16.478;2022-09-24T20:20:50;99486.63;;;15.63;67.94
19594;BME280;9944;48.240;16.478;2022-09-24T20:24:56;99476.13;;;15.57;67.99
19594;BME280;9944;48.240;16.478;2022-09-24T20:29:00;99484.22;;;15.52;68.24
19594;BME280;9944;48.240;16.478;2022-09-24T20:33:04;99485.19;;;15.47;68.04
19594;BME280;9944;48.240;16.478;2022-09-24T20:37:10;99490.63;;;15.40;68.54
19594;BME280;9944;48.240;16.478;2022-09-24T20:41:17;99483.72;;;15.33;68.63
19594;BME280;9944;48.240;16.478;2022-09-24T20:45:21;99486.47;;;15.27;68.55
19594;BME280;9944;48.240;16.478;2022-09-24T20:49:25;99487.44;;;15.23;68.62
19594;BME280;9944;48.240;16.478;2022-09-24T20:53:28;99478.72;;;15.18;68.74
19594;BME280;9944;48.240;16.478;2022-09-24T20:57:33;99477.09;;;15.11;68.66
19594;BME280;9944;48.240;16.478;2022-09-24T21:01:37;99486.94;;;15.04;69.07
19594;BME280;9944;48.240;16.478;2022-09-24T21:05:40;99474.72;;;14.97;69.60
19594;BME280;9944;48.240;16.478;2022-09-24T21:09:44;99475.63;;;14.94;70.00
19594;BME280;9944;48.240;16.478;2022-09-24T21:13:54;99469.47;;;14.92;70.27
19594;BME280;9944;48.240;16.478;2022-09-24T21:18:18;99470.44;;;14.90;70.19
19594;BME280;9944;48.240;16.478;2022-09-24T21:22:24;99476.66;;;14.85;70.24
19594;BME280;9944;48.240;16.478;2022-09-24T21:26:29;99477.66;;;14.80;70.34
19594;BME280;9944;48.240;16.478;2022-09-24T21:30:34;99483.91;;;14.76;70.70
19594;BME280;9944;48.240;16.478;2022-09-24T21:34:37;99483.13;;;14.71;70.42
19594;BME280;9944;48.240;16.478;2022-09-24T21:38:40;99486.69;;;14.68;70.71
19594;BME280;9944;48.240;16.478;2022-09-24T21:42:43;99480.56;;;14.66;70.76
19594;BME280;9944;48.240;16.478;2022-09-24T21:46:49;99480.56;;;14.64;71.09
19594;BME280;9944;48.240;16.478;2022-09-24T21:50:56;99483.22;;;14.64;71.13
19594;BME280;9944;48.240;16.478;2022-09-24T21:55:03;99483.22;;;14.64;71.56